sensor_id;sensor_type;location;lat;lon;timestamp;pressure;altitude;pressure_sealevel;temperature;humidity
216;BME280;64590;48.81286795;9.14184224;2023-03-13T00:01:09;97820.88;;;7.26;75.21
216;BME280;64590;48.81286795;9.14184224;2023-03-13T00:03:36;97818.06;;;7.16;76.17
216;BME280;64590;48.81286795;9.14184224;2023-03-13T00:06:03;97820.53;;;7.31;75.87
216;BME280;64590;48.81286795;9.14184224;2023-03-13T00:08:30;97811.88;;;7.33;75.77
216;BME280;64590;48.81286795;9.14184224;2023-03-13T00:11:01;97814.69;;;7.40;75.84
216;BME280;64590;48.81286795;9.14184224;2023-03-13T00:13:28;97823.03;;;7.47;75.45
216;BME280;64590;48.81286795;9.14184224;2023-03-13T00:15:59;97813.91;;;7.40;75.83
216;BME280;64590;48.81286795;9.14184224;2023-03-13T00:18:26;97813.91;;;7.47;75.60
216;BME280;64590;48.81286795;9.14184224;2023-03-13T00:20:57;97809.22;;;7.47;75.87
216;BME280;64590;48.81286795;9.14184224;2023-03-13T00:23:23;97803.00;;;7.64;75.38
216;BME280;64590;48.81286795;9.14184224;2023-03-13T00:25:55;97802.13;;;7.53;75.75
216;BME280;64590;48.81286795;9.14184224;2023-03-13T00:28:23;97804.91;;;7.53;76.26
216;BME280;64590;48.81286795;9.14184224;2023-03-13T00:30:49;97797.44;;;7.57;75.84
216;BME280;64590;48.81286795;9.14184224;2023-03-13T00:33:16;97793.44;;;7.51;75.83
216;BME280;64590;48.81286795;9.14184224;2023-03-13T00:35:42;97799.44;;;7.64;75.65
216;BME280;64590;48.81286795;9.14184224;2023-03-13T00:38:09;97795.50;;;7.69;75.84
216;BME280;64590;48.81286795;9.14184224;2023-03-13T00:40:35;97786.75;;;7.49;76.40
216;BME280;64590;48.81286795;9.14184224;2023-03-13T00:43:02;97789.19;;;7.68;75.87
216;BME280;64590;48.81286795;9.14184224;2023-03-13T00:45:30;97771.84;;;7.68;76.07
216;BME280;64590;48.81286795;9.14184224;2023-03-13T00:47:57;97775.44;;;7.79;75.61
216;BME280;64590;48.81286795;9.14184224;2023-03-13T00:50:23;97776.97;;;7.73;75.78
216;BME280;64590;48.81286795;9.14184224;2023-03-13T00:52:50;97769.94;;;7.86;75.64
216;BME280;64590;48.81286795;9.14184224;2023-03-13T00:55:16;97782.19;;;7.85;75.84
216;BME280;64590;48.81286795;9.14184224;2023-03-13T00:57:43;97771.09;;;7.81;75.62
216;BME280;64590;48.81286795;9.14184224;2023-03-13T01:00:11;97761.66;;;7.86;75.91
216;BME280;64590;48.81286795;9.14184224;2023-03-13T01:02:41;97758.88;;;7.82;75.81
216;BME280;64590;48.81286795;9.14184224;2023-03-13T01:05:09;97762.03;;;7.84;75.98
216;BME280;64590;48.81286795;9.14184224;2023-03-13T01:07:37;97749.06;;;7.92;75.99
216;BME280;64590;48.81286795;9.14184224;2023-03-13T01:10:05;97750.28;;;8.12;75.21
216;BME280;64590;48.81286795;9.14184224;2023-03-13T01:12:31;97743.94;;;8.05;75.29
216;BME280;64590;48.81286795;9.14184224;2023-03-13T01:14:58;97740.00;;;8.06;75.28
216;BME280;64590;48.81286795;9.14184224;2023-03-13T01:17:24;97735.25;;;8.06;74.88
216;BME280;64590;48.81286795;9.14184224;2023-03-13T01:19:55;97733.28;;;8.00;75.45
216;BME280;64590;48.81286795;9.14184224;2023-03-13T01:22:22;97726.56;;;7.97;75.65
216;BME280;64590;48.81286795;9.14184224;2023-03-13T01:24:49;97714.38;;;8.23;74.93
216;BME280;64590;48.81286795;9.14184224;2023-03-13T01:27:17;97723.06;;;8.18;74.91
216;BME280;64590;48.81286795;9.14184224;2023-03-13T01:29:44;97711.53;;;7.98;75.79
216;BME280;64590;48.81286795;9.14184224;2023-03-13T01:32:10;97712.00;;;8.21;74.87
216;BME280;64590;48.81286795;9.14184224;2023-03-13T01:34:37;97710.38;;;8.06;75.40
216;BME280;64590;48.81286795;9.14184224;2023-03-13T01:37:06;97703.31;;;8.09;75.17
216;BME280;64590;48.81286795;9.14184224;2023-03-13T01:39:32;97696.97;;;8.01;75.34
216;BME280;64590;48.81286795;9.14184224;2023-03-13T01:41:59;97697.34;;;7.92;75.84
216;BME280;64590;48.81286795;9.14184224;2023-03-13T01:44:26;97692.97;;;7.88;76.14
216;BME280;64590;48.81286795;9.14184224;2023-03-13T01:46:54;97687.09;;;8.04;75.83
216;BME280;64590;48.81286795;9.14184224;2023-03-13T01:49:26;97689.81;;;7.86;76.35
216;BME280;64590;48.81286795;9.14184224;2023-03-13T01:52:12;97675.59;;;7.84;76.21
216;BME280;64590;48.81286795;9.14184224;2023-03-13T01:54:48;97673.66;;;7.91;75.96
216;BME280;64590;48.81286795;9.14184224;2023-03-13T01:57:20;97667.34;;;7.98;75.46
216;BME280;64590;48.81286795;9.14184224;2023-03-13T01:59:53;97662.59;;;7.99;75.35
216;BME280;64590;48.81286795;9.14184224;2023-03-13T02:02:22;97653.91;;;7.97;75.60
216;BME280;64590;48.81286795;9.14184224;2023-03-13T02:04:52;97645.63;;;8.07;76.14
216;BME280;64590;48.81286795;9.14184224;2023-03-13T02:07:25;97644.47;;;8.15;75.74
216;BME280;64590;48.81286795;9.14184224;2023-03-13T02:09:55;97643.66;;;7.93;76.29
216;BME280;64590;48.81286795;9.14184224;2023-03-13T02:12:26;97642.09;;;8.00;76.51
216;BME280;64590;48.81286795;9.14184224;2023-03-13T02:14:56;97632.63;;;8.01;76.48
216;BME280;64590;48.81286795;9.14184224;2023-03-13T02:17:24;97635.78;;;8.03;76.24
216;BME280;64590;48.81286795;9.14184224;2023-03-13T02:19:52;97632.59;;;8.08;75.84
216;BME280;64590;48.81286795;9.14184224;2023-03-13T02:22:25;97632.22;;;8.20;75.14
216;BME280;64590;48.81286795;9.14184224;2023-03-13T02:24:57;97629.88;;;8.26;74.75
216;BME280;64590;48.81286795;9.14184224;2023-03-13T02:27:30;97625.50;;;8.21;74.88
216;BME280;64590;48.81286795;9.14184224;2023-03-13T02:29:57;97626.69;;;8.23;75.03
216;BME280;64590;48.81286795;9.14184224;2023-03-13T02:32:25;97622.00;;;8.35;74.56
216;BME280;64590;48.81286795;9.14184224;2023-03-13T02:34:57;97617.66;;;8.37;73.71
216;BME280;64590;48.81286795;9.14184224;2023-03-13T02:37:26;97614.84;;;8.34;74.10
216;BME280;64590;48.81286795;9.14184224;2023-03-13T02:39:57;97610.94;;;8.53;72.97
216;BME280;64590;48.81286795;9.14184224;2023-03-13T02:42:26;97593.91;;;8.65;72.75
216;BME280;64590;48.81286795;9.14184224;2023-03-13T02:44:54;97588.41;;;8.61;72.59
216;BME280;64590;48.81286795;9.14184224;2023-03-13T02:47:22;97589.19;;;8.62;72.90
216;BME280;64590;48.81286795;9.14184224;2023-03-13T02:49:50;97572.56;;;8.65;72.80
216;BME280;64590;48.81286795;9.14184224;2023-03-13T02:52:20;97570.91;;;8.86;72.43
216;BME280;64590;48.81286795;9.14184224;2023-03-13T02:54:51;97563.88;;;8.70;72.37
216;BME280;64590;48.81286795;9.14184224;2023-03-13T02:57:20;97565.06;;;8.62;73.26
216;BME280;64590;48.81286795;9.14184224;2023-03-13T02:59:46;97556.78;;;8.62;73.59
216;BME280;64590;48.81286795;9.14184224;2023-03-13T03:02:14;97546.03;;;8.82;73.41
216;BME280;64590;48.81286795;9.14184224;2023-03-13T03:04:41;97538.13;;;8.77;73.91
216;BME280;64590;48.81286795;9.14184224;2023-03-13T03:07:09;97543.69;;;8.73;73.72
216;BME280;64590;48.81286795;9.14184224;2023-03-13T03:09:36;97543.22;;;8.93;72.59
216;BME280;64590;48.81286795;9.14184224;2023-03-13T03:12:08;97530.97;;;8.94;72.65
216;BME280;64590;48.81286795;9.14184224;2023-03-13T03:14:35;97527.06;;;8.84;73.60
216;BME280;64590;48.81286795;9.14184224;2023-03-13T03:17:02;97534.13;;;8.99;74.44
216;BME280;64590;48.81286795;9.14184224;2023-03-13T03:19:30;97526.22;;;8.94;74.76
216;BME280;64590;48.81286795;9.14184224;2023-03-13T03:21:58;97523.13;;;8.82;76.92
216;BME280;64590;48.81286795;9.14184224;2023-03-13T03:24:25;97529.78;;;8.91;77.26
216;BME280;64590;48.81286795;9.14184224;2023-03-13T03:26:52;97525.53;;;8.72;77.94
216;BME280;64590;48.81286795;9.14184224;2023-03-13T03:29:24;97522.75;;;8.72;78.89
216;BME280;64590;48.81286795;9.14184224;2023-03-13T03:31:53;97518.44;;;8.64;78.62
216;BME280;64590;48.81286795;9.14184224;2023-03-13T03:34:20;97529.47;;;8.71;79.28
216;BME280;64590;48.81286795;9.14184224;2023-03-13T03:36:48;97520.38;;;8.67;79.78
216;BME280;64590;48.81286795;9.14184224;2023-03-13T03:39:15;97515.63;;;8.75;80.26
216;BME280;64590;48.81286795;9.14184224;2023-03-13T03:41:41;97504.50;;;8.86;80.24
216;BME280;64590;48.81286795;9.14184224;2023-03-13T03:44:09;97507.34;;;8.68;80.61
216;BME280;64590;48.81286795;9.14184224;2023-03-13T03:46:51;97508.16;;;8.65;81.41
216;BME280;64590;48.81286795;9.14184224;2023-03-13T03:49:17;97515.56;;;8.86;80.44
216;BME280;64590;48.81286795;9.14184224;2023-03-13T03:51:44;97508.16;;;8.65;81.59
216;BME280;64590;48.81286795;9.14184224;2023-03-13T03:54:13;97511.72;;;8.69;81.29
216;BME280;64590;48.81286795;9.14184224;2023-03-13T03:56:39;97506.47;;;8.96;79.30
216;BME280;64590;48.81286795;9.14184224;2023-03-13T03:59:06;97512.75;;;9.00;79.48
216;BME280;64590;48.81286795;9.14184224;2023-03-13T04:01:45;97512.34;;;9.01;79.82
216;BME280;64590;48.81286795;9.14184224;2023-03-13T04:04:14;97511.44;;;9.26;78.56
216;BME280;64590;48.81286795;9.14184224;2023-03-13T04:06:44;97501.06;;;9.41;77.96
216;BME280;64590;48.81286795;9.14184224;2023-03-13T04:09:12;97501.84;;;9.97;76.21
216;BME280;64590;48.81286795;9.14184224;2023-03-13T04:11:38;97496.81;;;10.29;75.49
216;BME280;64590;48.81286795;9.14184224;2023-03-13T04:14:07;97488.72;;;10.45;74.96
216;BME280;64590;48.81286795;9.14184224;2023-03-13T04:16:34;97471.38;;;10.72;74.76
216;BME280;64590;48.81286795;9.14184224;2023-03-13T04:19:01;97485.88;;;10.87;74.74
216;BME280;64590;48.81286795;9.14184224;2023-03-13T04:21:28;97476.66;;;10.93;74.36
216;BME280;64590;48.81286795;9.14184224;2023-03-13T04:24:01;97482.09;;;11.04;74.47
216;BME280;64590;48.81286795;9.14184224;2023-03-13T04:26:30;97474.75;;;11.17;74.23
216;BME280;64590;48.81286795;9.14184224;2023-03-13T04:28:58;97477.44;;;11.24;74.33
216;BME280;64590;48.81286795;9.14184224;2023-03-13T04:31:48;97468.75;;;11.22;74.73
216;BME280;64590;48.81286795;9.14184224;2023-03-13T04:34:38;97465.56;;;11.24;74.48
216;BME280;64590;48.81286795;9.14184224;2023-03-13T04:37:27;97468.88;;;11.12;75.28
216;BME280;64590;48.81286795;9.14184224;2023-03-13T04:40:07;97473.25;;;11.40;74.45
216;BME280;64590;48.81286795;9.14184224;2023-03-13T04:42:50;97467.72;;;11.40;74.56
216;BME280;64590;48.81286795;9.14184224;2023-03-13T04:45:36;97482.31;;;11.44;74.43
216;BME280;64590;48.81286795;9.14184224;2023-03-13T04:48:15;97486.25;;;11.46;74.69
216;BME280;64590;48.81286795;9.14184224;2023-03-13T04:50:41;97469.81;;;11.32;74.92
216;BME280;64590;48.81286795;9.14184224;2023-03-13T04:53:36;97467.22;;;11.45;74.94
216;BME280;64590;48.81286795;9.14184224;2023-03-13T04:56:23;97476.25;;;11.52;74.41
216;BME280;64590;48.81286795;9.14184224;2023-03-13T04:58:58;97468.75;;;11.49;74.50
216;BME280;64590;48.81286795;9.14184224;2023-03-13T05:01:57;97467.66;;;11.43;74.88
216;BME280;64590;48.81286795;9.14184224;2023-03-13T05:04:50;97462.88;;;11.44;74.73
216;BME280;64590;48.81286795;9.14184224;2023-03-13T05:07:49;97469.38;;;11.60;74.05
216;BME280;64590;48.81286795;9.14184224;2023-03-13T05:10:24;97470.94;;;11.61;74.02
216;BME280;64590;48.81286795;9.14184224;2023-03-13T05:13:08;97456.78;;;11.52;74.15
216;BME280;64590;48.81286795;9.14184224;2023-03-13T05:15:57;97466.06;;;11.42;74.78
216;BME280;64590;48.81286795;9.14184224;2023-03-13T05:18:49;97469.53;;;11.50;74.39
216;BME280;64590;48.81286795;9.14184224;2023-03-13T05:21:34;97471.00;;;11.58;74.04
216;BME280;64590;48.81286795;9.14184224;2023-03-13T05:24:24;97482.66;;;11.49;74.30
216;BME280;64590;48.81286795;9.14184224;2023-03-13T05:27:23;97476.59;;;11.54;74.11
216;BME280;64590;48.81286795;9.14184224;2023-03-13T05:30:07;97468.22;;;11.58;73.77
216;BME280;64590;48.81286795;9.14184224;2023-03-13T05:32:46;97468.50;;;11.64;73.75
216;BME280;64590;48.81286795;9.14184224;2023-03-13T05:35:33;97472.94;;;11.61;73.91
216;BME280;64590;48.81286795;9.14184224;2023-03-13T05:38:26;97465.72;;;11.64;73.85
216;BME280;64590;48.81286795;9.14184224;2023-03-13T05:41:11;97447.09;;;11.64;73.53
216;BME280;64590;48.81286795;9.14184224;2023-03-13T05:43:57;97445.38;;;11.70;73.56
216;BME280;64590;48.81286795;9.14184224;2023-03-13T05:46:32;97459.38;;;11.63;73.78
216;BME280;64590;48.81286795;9.14184224;2023-03-13T05:49:19;97454.16;;;11.69;73.71
216;BME280;64590;48.81286795;9.14184224;2023-03-13T05:52:06;97459.72;;;11.69;73.70
216;BME280;64590;48.81286795;9.14184224;2023-03-13T05:55:06;97460.25;;;11.60;74.25
216;BME280;64590;48.81286795;9.14184224;2023-03-13T05:57:44;97456.63;;;11.63;74.25
216;BME280;64590;48.81286795;9.14184224;2023-03-13T06:00:27;97448.75;;;11.58;74.66
216;BME280;64590;48.81286795;9.14184224;2023-03-13T06:03:14;97447.91;;;11.61;74.94
216;BME280;64590;48.81286795;9.14184224;2023-03-13T06:05:45;97451.59;;;11.54;74.70
216;BME280;64590;48.81286795;9.14184224;2023-03-13T06:08:24;97460.44;;;11.73;74.25
216;BME280;64590;48.81286795;9.14184224;2023-03-13T06:10:51;97451.28;;;11.72;73.98
216;BME280;64590;48.81286795;9.14184224;2023-03-13T06:13:17;97458.03;;;11.75;73.84
216;BME280;64590;48.81286795;9.14184224;2023-03-13T06:15:50;97452.78;;;11.80;73.66
216;BME280;64590;48.81286795;9.14184224;2023-03-13T06:18:33;97464.59;;;11.88;73.67
216;BME280;64590;48.81286795;9.14184224;2023-03-13T06:21:02;97456.41;;;11.77;73.88
216;BME280;64590;48.81286795;9.14184224;2023-03-13T06:23:28;97462.03;;;11.97;73.11
216;BME280;64590;48.81286795;9.14184224;2023-03-13T06:25:55;97457.75;;;11.93;73.36
216;BME280;64590;48.81286795;9.14184224;2023-03-13T06:28:21;97464.00;;;12.00;73.49
216;BME280;64590;48.81286795;9.14184224;2023-03-13T06:30:48;97460.47;;;11.96;73.55
216;BME280;64590;48.81286795;9.14184224;2023-03-13T06:33:14;97459.25;;;11.97;73.52
216;BME280;64590;48.81286795;9.14184224;2023-03-13T06:35:42;97449.94;;;12.07;73.35
216;BME280;64590;48.81286795;9.14184224;2023-03-13T06:38:10;97449.91;;;12.11;73.22
216;BME280;64590;48.81286795;9.14184224;2023-03-13T06:40:36;97455.47;;;12.11;73.14
216;BME280;64590;48.81286795;9.14184224;2023-03-13T06:43:03;97450.44;;;12.02;73.78
216;BME280;64590;48.81286795;9.14184224;2023-03-13T06:45:30;97451.22;;;12.03;73.90
216;BME280;64590;48.81286795;9.14184224;2023-03-13T06:47:56;97453.69;;;11.97;73.94
216;BME280;64590;48.81286795;9.14184224;2023-03-13T06:50:23;97455.50;;;12.07;73.79
216;BME280;64590;48.81286795;9.14184224;2023-03-13T06:52:49;97468.28;;;12.05;74.16
216;BME280;64590;48.81286795;9.14184224;2023-03-13T06:55:17;97465.38;;;12.12;73.74
216;BME280;64590;48.81286795;9.14184224;2023-03-13T06:57:43;97474.16;;;12.10;74.01
216;BME280;64590;48.81286795;9.14184224;2023-03-13T07:00:15;97478.94;;;12.10;74.05
216;BME280;64590;48.81286795;9.14184224;2023-03-13T07:02:41;97478.56;;;12.08;74.00
216;BME280;64590;48.81286795;9.14184224;2023-03-13T07:05:08;97473.72;;;12.12;73.97
216;BME280;64590;48.81286795;9.14184224;2023-03-13T07:07:35;97462.16;;;12.13;74.18
216;BME280;64590;48.81286795;9.14184224;2023-03-13T07:10:02;97470.22;;;12.08;74.29
216;BME280;64590;48.81286795;9.14184224;2023-03-13T07:12:30;97476.66;;;12.25;73.67
216;BME280;64590;48.81286795;9.14184224;2023-03-13T07:14:57;97479.50;;;12.21;73.83
216;BME280;64590;48.81286795;9.14184224;2023-03-13T07:17:23;97466.69;;;12.27;73.49
216;BME280;64590;48.81286795;9.14184224;2023-03-13T07:19:50;97468.03;;;12.19;74.05
216;BME280;64590;48.81286795;9.14184224;2023-03-13T07:22:16;97476.66;;;12.25;74.01
216;BME280;64590;48.81286795;9.14184224;2023-03-13T07:24:43;97475.16;;;12.20;74.25
216;BME280;64590;48.81286795;9.14184224;2023-03-13T07:27:09;97477.09;;;12.23;74.14
216;BME280;64590;48.81286795;9.14184224;2023-03-13T07:29:37;97470.31;;;12.24;74.44
216;BME280;64590;48.81286795;9.14184224;2023-03-13T07:32:05;97467.75;;;12.33;74.10
216;BME280;64590;48.81286795;9.14184224;2023-03-13T07:34:31;97456.16;;;12.15;74.61
216;BME280;64590;48.81286795;9.14184224;2023-03-13T07:36:58;97463.00;;;12.34;74.06
216;BME280;64590;48.81286795;9.14184224;2023-03-13T07:39:24;97456.13;;;12.19;74.62
216;BME280;64590;48.81286795;9.14184224;2023-03-13T07:41:51;97458.28;;;12.31;74.58
216;BME280;64590;48.81286795;9.14184224;2023-03-13T07:44:17;97458.50;;;12.40;74.04
216;BME280;64590;48.81286795;9.14184224;2023-03-13T07:46:45;97449.31;;;12.43;74.29
216;BME280;64590;48.81286795;9.14184224;2023-03-13T07:49:14;97443.22;;;12.48;74.06
216;BME280;64590;48.81286795;9.14184224;2023-03-13T07:51:41;97446.22;;;12.37;74.42
216;BME280;64590;48.81286795;9.14184224;2023-03-13T07:54:07;97432.19;;;12.44;74.13
216;BME280;64590;48.81286795;9.14184224;2023-03-13T07:56:34;97425.09;;;12.40;74.56
216;BME280;64590;48.81286795;9.14184224;2023-03-13T07:59:00;97430.75;;;12.56;73.97
216;BME280;64590;48.81286795;9.14184224;2023-03-13T08:01:27;97417.25;;;12.55;74.29
216;BME280;64590;48.81286795;9.14184224;2023-03-13T08:03:54;97408.56;;;12.53;74.50
216;BME280;64590;48.81286795;9.14184224;2023-03-13T08:06:24;97415.13;;;12.62;74.47
216;BME280;64590;48.81286795;9.14184224;2023-03-13T08:08:51;97414.41;;;12.78;73.31
216;BME280;64590;48.81286795;9.14184224;2023-03-13T08:11:20;97406.03;;;12.78;73.07
216;BME280;64590;48.81286795;9.14184224;2023-03-13T08:13:48;97380.56;;;12.80;73.11
216;BME280;64590;48.81286795;9.14184224;2023-03-13T08:16:16;97389.88;;;12.89;72.96
216;BME280;64590;48.81286795;9.14184224;2023-03-13T08:18:45;97397.09;;;12.87;73.16
216;BME280;64590;48.81286795;9.14184224;2023-03-13T08:21:14;97385.19;;;13.02;73.52
216;BME280;64590;48.81286795;9.14184224;2023-03-13T08:23:42;97382.59;;;13.12;72.25
216;BME280;64590;48.81286795;9.14184224;2023-03-13T08:26:10;97378.31;;;13.27;72.08
216;BME280;64590;48.81286795;9.14184224;2023-03-13T08:28:37;97370.59;;;13.15;71.51
216;BME280;64590;48.81286795;9.14184224;2023-03-13T08:31:08;97390.00;;;13.38;70.96
216;BME280;64590;48.81286795;9.14184224;2023-03-13T08:33:35;97396.78;;;13.37;70.87
216;BME280;64590;48.81286795;9.14184224;2023-03-13T08:36:10;97397.31;;;13.32;71.01
216;BME280;64590;48.81286795;9.14184224;2023-03-13T08:38:40;97376.75;;;13.42;70.41
216;BME280;64590;48.81286795;9.14184224;2023-03-13T08:41:08;97385.28;;;13.51;70.66
216;BME280;64590;48.81286795;9.14184224;2023-03-13T08:43:35;97393.13;;;13.56;71.04
216;BME280;64590;48.81286795;9.14184224;2023-03-13T08:46:02;97388.53;;;13.66;69.57
216;BME280;64590;48.81286795;9.14184224;2023-03-13T08:48:29;97384.06;;;13.52;70.48
216;BME280;64590;48.81286795;9.14184224;2023-03-13T08:51:00;97389.91;;;13.58;69.96
216;BME280;64590;48.81286795;9.14184224;2023-03-13T08:53:27;97393.31;;;13.66;70.24
216;BME280;64590;48.81286795;9.14184224;2023-03-13T08:55:55;97394.72;;;13.74;68.90
216;BME280;64590;48.81286795;9.14184224;2023-03-13T08:58:22;97373.97;;;13.75;69.09
216;BME280;64590;48.81286795;9.14184224;2023-03-13T09:00:49;97388.84;;;13.84;68.49
216;BME280;64590;48.81286795;9.14184224;2023-03-13T09:03:15;97392.88;;;13.83;68.76
216;BME280;64590;48.81286795;9.14184224;2023-03-13T09:05:42;97382.81;;;13.86;67.86
216;BME280;64590;48.81286795;9.14184224;2023-03-13T09:08:10;97384.66;;;13.93;69.03
216;BME280;64590;48.81286795;9.14184224;2023-03-13T09:10:37;97391.69;;;13.97;67.99
216;BME280;64590;48.81286795;9.14184224;2023-03-13T09:13:04;97386.72;;;13.89;67.72
216;BME280;64590;48.81286795;9.14184224;2023-03-13T09:15:31;97375.72;;;13.98;68.03
216;BME280;64590;48.81286795;9.14184224;2023-03-13T09:17:58;97380.13;;;13.82;68.57
216;BME280;64590;48.81286795;9.14184224;2023-03-13T09:20:24;97378.03;;;13.86;68.39
216;BME280;64590;48.81286795;9.14184224;2023-03-13T09:22:51;97382.03;;;14.02;67.90
216;BME280;64590;48.81286795;9.14184224;2023-03-13T09:25:19;97381.91;;;14.05;67.78
216;BME280;64590;48.81286795;9.14184224;2023-03-13T09:27:46;97378.25;;;14.08;67.61
216;BME280;64590;48.81286795;9.14184224;2023-03-13T09:30:14;97384.53;;;14.12;67.26
216;BME280;64590;48.81286795;9.14184224;2023-03-13T09:32:41;97394.13;;;14.11;67.42
216;BME280;64590;48.81286795;9.14184224;2023-03-13T09:35:08;97384.78;;;14.18;67.18
216;BME280;64590;48.81286795;9.14184224;2023-03-13T09:37:34;97392.84;;;14.29;67.31
216;BME280;64590;48.81286795;9.14184224;2023-03-13T09:40:01;97402.34;;;14.31;66.91
216;BME280;64590;48.81286795;9.14184224;2023-03-13T09:42:34;97386.69;;;14.21;66.80
216;BME280;64590;48.81286795;9.14184224;2023-03-13T09:45:08;97398.44;;;14.29;66.65
216;BME280;64590;48.81286795;9.14184224;2023-03-13T09:47:42;97393.78;;;14.38;66.75
216;BME280;64590;48.81286795;9.14184224;2023-03-13T09:50:12;97396.66;;;14.51;66.34
216;BME280;64590;48.81286795;9.14184224;2023-03-13T09:52:40;97385.50;;;14.64;65.89
216;BME280;64590;48.81286795;9.14184224;2023-03-13T09:55:13;97387.91;;;14.78;65.47
216;BME280;64590;48.81286795;9.14184224;2023-03-13T09:57:48;97371.16;;;14.91;64.68
216;BME280;64590;48.81286795;9.14184224;2023-03-13T10:00:22;97363.13;;;15.06;65.02
216;BME280;64590;48.81286795;9.14184224;2023-03-13T10:02:55;97367.34;;;15.10;64.66
216;BME280;64590;48.81286795;9.14184224;2023-03-13T10:05:24;97367.72;;;15.12;63.89
216;BME280;64590;48.81286795;9.14184224;2023-03-13T10:07:55;97370.16;;;14.97;62.86
216;BME280;64590;48.81286795;9.14184224;2023-03-13T10:10:28;97374.97;;;14.97;63.26
216;BME280;64590;48.81286795;9.14184224;2023-03-13T10:13:03;97361.53;;;14.92;63.69
216;BME280;64590;48.81286795;9.14184224;2023-03-13T10:15:38;97351.69;;;15.00;62.68
216;BME280;64590;48.81286795;9.14184224;2023-03-13T10:18:15;97361.34;;;15.12;63.07
216;BME280;64590;48.81286795;9.14184224;2023-03-13T10:20:46;97346.78;;;15.17;63.00
216;BME280;64590;48.81286795;9.14184224;2023-03-13T10:23:17;97339.63;;;15.41;62.10
216;BME280;64590;48.81286795;9.14184224;2023-03-13T10:25:44;97326.75;;;15.44;63.17
216;BME280;64590;48.81286795;9.14184224;2023-03-13T10:28:13;97336.56;;;15.74;61.38
216;BME280;64590;48.81286795;9.14184224;2023-03-13T10:30:43;97332.44;;;16.00;60.25
216;BME280;64590;48.81286795;9.14184224;2023-03-13T10:33:21;97334.53;;;16.09;59.52
216;BME280;64590;48.81286795;9.14184224;2023-03-13T10:35:59;97335.84;;;16.17;59.19
216;BME280;64590;48.81286795;9.14184224;2023-03-13T10:38:26;97316.13;;;16.21;59.65
216;BME280;64590;48.81286795;9.14184224;2023-03-13T10:40:55;97323.75;;;16.20;59.04
216;BME280;64590;48.81286795;9.14184224;2023-03-13T10:43:24;97327.00;;;16.19;59.16
216;BME280;64590;48.81286795;9.14184224;2023-03-13T10:45:52;97316.44;;;16.23;59.32
216;BME280;64590;48.81286795;9.14184224;2023-03-13T10:48:21;97324.00;;;16.13;59.69
216;BME280;64590;48.81286795;9.14184224;2023-03-13T10:50:50;97318.28;;;16.17;59.11
216;BME280;64590;48.81286795;9.14184224;2023-03-13T10:53:23;97317.22;;;16.23;58.69
216;BME280;64590;48.81286795;9.14184224;2023-03-13T10:55:52;97308.94;;;16.42;58.15
216;BME280;64590;48.81286795;9.14184224;2023-03-13T10:58:22;97302.31;;;16.70;57.75
216;BME280;64590;48.81286795;9.14184224;2023-03-13T11:01:08;97295.69;;;16.86;57.76
216;BME280;64590;48.81286795;9.14184224;2023-03-13T11:03:37;97284.69;;;17.01;57.40
216;BME280;64590;48.81286795;9.14184224;2023-03-13T11:06:03;97299.50;;;17.10;56.48
216;BME280;64590;48.81286795;9.14184224;2023-03-13T11:08:34;97298.53;;;16.95;56.57
216;BME280;64590;48.81286795;9.14184224;2023-03-13T11:11:03;97294.28;;;16.90;56.54
216;BME280;64590;48.81286795;9.14184224;2023-03-13T11:13:33;97285.56;;;16.88;56.71
216;BME280;64590;48.81286795;9.14184224;2023-03-13T11:16:08;97288.06;;;16.86;56.14
216;BME280;64590;48.81286795;9.14184224;2023-03-13T11:18:40;97272.97;;;16.93;56.37
216;BME280;64590;48.81286795;9.14184224;2023-03-13T11:21:19;97280.81;;;17.07;56.34
216;BME280;64590;48.81286795;9.14184224;2023-03-13T11:23:53;97279.09;;;17.10;56.21
216;BME280;64590;48.81286795;9.14184224;2023-03-13T11:26:25;97261.06;;;17.20;55.43
216;BME280;64590;48.81286795;9.14184224;2023-03-13T11:28:57;97255.97;;;17.46;54.98
216;BME280;64590;48.81286795;9.14184224;2023-03-13T11:31:31;97239.00;;;17.59;54.14
216;BME280;64590;48.81286795;9.14184224;2023-03-13T11:34:04;97237.75;;;17.69;54.54
216;BME280;64590;48.81286795;9.14184224;2023-03-13T11:36:33;97216.09;;;17.60;53.74
216;BME280;64590;48.81286795;9.14184224;2023-03-13T11:39:10;97225.31;;;17.70;53.92
216;BME280;64590;48.81286795;9.14184224;2023-03-13T11:41:47;97224.81;;;17.80;53.92
216;BME280;64590;48.81286795;9.14184224;2023-03-13T11:44:29;97214.25;;;17.75;54.81
216;BME280;64590;48.81286795;9.14184224;2023-03-13T11:47:11;97198.34;;;17.91;53.61
216;BME280;64590;48.81286795;9.14184224;2023-03-13T11:50:00;97184.84;;;18.13;53.08
216;BME280;64590;48.81286795;9.14184224;2023-03-13T11:52:42;97186.06;;;18.30;52.66
216;BME280;64590;48.81286795;9.14184224;2023-03-13T11:55:28;97169.13;;;18.16;52.87
216;BME280;64590;48.81286795;9.14184224;2023-03-13T11:58:12;97182.78;;;18.32;52.06
216;BME280;64590;48.81286795;9.14184224;2023-03-13T12:00:45;97163.59;;;18.30;51.93
216;BME280;64590;48.81286795;9.14184224;2023-03-13T12:03:15;97155.94;;;18.73;51.34
216;BME280;64590;48.81286795;9.14184224;2023-03-13T12:05:48;97156.84;;;18.79;51.42
216;BME280;64590;48.81286795;9.14184224;2023-03-13T12:08:19;97152.56;;;19.17;50.66